createdAt,value
2018-04-29T00:01:33.245Z,96.32
2018-04-29T00:04:01.761Z,95.68
2018-04-29T00:06:30.301Z,95.98
2018-04-29T00:08:59.317Z,96.57
2018-04-29T00:11:27.667Z,94.95
2018-04-29T00:13:56.897Z,95.09
2018-04-29T00:16:25.205Z,96.47
2018-04-29T00:18:53.467Z,96.78
2018-04-29T00:21:21.756Z,97.32
2018-04-29T00:23:50.059Z,97.49
2018-04-29T00:26:19.118Z,97.07
2018-04-29T00:28:47.459Z,97.28
2018-04-29T00:31:15.719Z,97.37
2018-04-29T00:33:44.018Z,96.94
2018-04-29T00:36:12.271Z,97.19
2018-04-29T00:38:40.637Z,96.66
2018-04-29T00:41:09.029Z,97.45
2018-04-29T00:43:37.349Z,97.19
2018-04-29T00:46:05.640Z,97.29
2018-04-29T00:48:33.976Z,97.00
2018-04-29T00:51:02.229Z,97.82
2018-04-29T00:53:30.492Z,97.87
2018-04-29T00:55:58.810Z,97.46
2018-04-29T00:58:27.159Z,97.60
2018-04-29T01:00:55.567Z,97.40
2018-04-29T01:03:23.835Z,97.58
2018-04-29T01:05:52.115Z,98.00
2018-04-29T01:08:20.378Z,98.57
2018-04-29T01:10:48.650Z,98.29
2018-04-29T01:13:16.937Z,98.64
2018-04-29T01:15:45.224Z,98.34
2018-04-29T01:18:13.797Z,98.47
2018-04-29T01:20:42.078Z,98.63
2018-04-29T01:23:10.447Z,98.08
2018-04-29T01:25:39.029Z,97.86
2018-04-29T01:28:07.310Z,97.93
2018-04-29T01:30:35.600Z,98.77
2018-04-29T01:33:03.894Z,99.10
2018-04-29T01:35:32.289Z,99.06
2018-04-29T01:38:01.347Z,98.92
2018-04-29T01:40:29.607Z,98.71
2018-04-29T01:42:57.877Z,98.32
2018-04-29T01:45:26.135Z,98.14
2018-04-29T01:47:54.414Z,97.86
2018-04-29T01:50:22.671Z,98.17
2018-04-29T01:52:50.961Z,98.14
2018-04-29T01:55:20.003Z,97.68
2018-04-29T01:57:48.265Z,97.41
2018-04-29T02:00:16.579Z,97.71
2018-04-29T02:02:45.629Z,97.88
2018-04-29T02:05:13.910Z,97.99
2018-04-29T02:07:42.285Z,98.94
2018-04-29T02:10:10.574Z,98.85
2018-04-29T02:12:38.905Z,98.85
2018-04-29T02:15:07.193Z,98.74
2018-04-29T02:17:35.464Z,99.18
2018-04-29T02:20:03.743Z,99.19
2018-04-29T02:22:32.016Z,97.72
2018-04-29T02:25:00.287Z,98.18
2018-04-29T02:27:28.656Z,98.32
2018-04-29T02:29:56.947Z,98.90
2018-04-29T02:32:25.217Z,98.93
2018-04-29T02:34:53.501Z,99.06
2018-04-29T02:37:21.791Z,99.12
2018-04-29T02:39:50.050Z,98.86
2018-04-29T02:42:18.325Z,98.87
2018-04-29T02:44:46.622Z,98.58
2018-04-29T02:47:14.939Z,98.50
2018-04-29T02:49:43.964Z,98.54
2018-04-29T02:52:12.235Z,98.79
2018-04-29T02:54:40.493Z,98.53
2018-04-29T02:57:08.795Z,98.76
2018-04-29T02:59:37.083Z,98.02
2018-04-29T03:02:05.358Z,98.33
2018-04-29T03:04:33.622Z,98.34
2018-04-29T03:07:01.897Z,98.71
2018-04-29T03:09:30.183Z,98.59
2018-04-29T03:11:58.441Z,98.83
2018-04-29T03:14:26.729Z,99.21
2018-04-29T03:16:54.993Z,98.53
2018-04-29T03:19:23.665Z,98.46
2018-04-29T03:21:51.951Z,99.08
2018-04-29T03:24:20.253Z,98.65
2018-04-29T03:26:50.034Z,97.83
2018-04-29T03:29:18.301Z,98.74
2018-04-29T03:31:46.578Z,100.00
2018-04-29T03:34:14.881Z,100.00
2018-04-29T03:36:43.238Z,100.00
2018-04-29T03:39:11.522Z,100.00
2018-04-29T03:41:39.795Z,100.00
2018-04-29T03:44:08.063Z,100.00
2018-04-29T03:46:36.355Z,100.00
2018-04-29T03:49:04.617Z,100.00
2018-04-29T03:51:32.898Z,100.00
2018-04-29T03:54:01.195Z,100.00
2018-04-29T03:56:29.694Z,100.00
2018-04-29T03:59:15.524Z,100.00
2018-04-29T04:02:01.542Z,100.00
2018-04-29T04:04:29.810Z,100.00
2018-04-29T04:06:58.103Z,100.00
2018-04-29T04:09:26.462Z,100.00
2018-04-29T04:11:54.740Z,100.00
2018-04-29T04:14:23.014Z,100.00
2018-04-29T04:16:51.306Z,100.00
2018-04-29T04:19:19.617Z,100.00
2018-04-29T04:21:48.030Z,100.00
2018-04-29T04:24:16.305Z,100.00
2018-04-29T04:26:44.582Z,100.00
2018-04-29T04:29:12.880Z,100.00
2018-04-29T04:31:41.153Z,100.00
2018-04-29T04:34:09.568Z,100.00
2018-04-29T04:36:38.509Z,100.00
2018-04-29T04:39:06.799Z,100.00
2018-04-29T04:41:35.070Z,100.00
2018-04-29T04:44:03.435Z,100.00
2018-04-29T04:46:31.924Z,100.00
2018-04-29T04:49:00.222Z,100.00
2018-04-29T04:51:28.496Z,100.00
2018-04-29T04:53:56.778Z,100.00
2018-04-29T04:56:25.070Z,100.00
2018-04-29T04:58:53.398Z,100.00
2018-04-29T05:01:21.667Z,100.00
2018-04-29T05:03:50.135Z,100.00
2018-04-29T05:06:18.425Z,100.00
2018-04-29T05:08:46.748Z,100.00
2018-04-29T05:11:15.038Z,100.00
2018-04-29T05:13:43.412Z,100.00
2018-04-29T05:16:11.626Z,100.00
2018-04-29T05:18:39.900Z,100.00
2018-04-29T05:21:08.204Z,100.00
2018-04-29T05:23:37.256Z,100.00
2018-04-29T05:26:05.687Z,100.00
2018-04-29T05:28:34.138Z,100.00
2018-04-29T05:31:02.452Z,100.00
2018-04-29T05:33:31.505Z,100.00
2018-04-29T05:35:59.851Z,100.00
2018-04-29T05:38:28.148Z,100.00
2018-04-29T05:40:56.459Z,100.00
2018-04-29T05:43:24.726Z,100.00
2018-04-29T05:45:53.067Z,99.97
2018-04-29T05:48:21.318Z,99.43
2018-04-29T05:50:49.599Z,99.02
2018-04-29T05:53:17.992Z,99.30
2018-04-29T05:55:46.273Z,99.37
2018-04-29T05:58:14.552Z,99.48
2018-04-29T06:00:42.842Z,99.82
2018-04-29T06:03:11.117Z,99.30
2018-04-29T06:05:40.206Z,98.73
2018-04-29T06:08:08.522Z,98.37
2018-04-29T06:10:37.690Z,97.37
2018-04-29T06:13:07.612Z,96.48
2018-04-29T06:15:35.894Z,96.08
2018-04-29T06:18:04.452Z,96.60
2018-04-29T06:20:32.797Z,96.05
2018-04-29T06:23:01.065Z,95.76
2018-04-29T06:25:29.363Z,96.41
2018-04-29T06:27:57.642Z,96.70
2018-04-29T06:30:25.930Z,96.30
2018-04-29T06:32:54.240Z,95.26
2018-04-29T06:35:23.304Z,94.29
2018-04-29T06:37:51.592Z,95.04
2018-04-29T06:40:19.854Z,93.10
2018-04-29T06:42:48.118Z,95.29
2018-04-29T06:45:16.395Z,95.75
2018-04-29T06:47:44.661Z,95.80
2018-04-29T06:50:12.979Z,95.28
2018-04-29T06:52:41.708Z,95.77
2018-04-29T06:55:10.034Z,95.99
2018-04-29T06:57:38.468Z,95.42
2018-04-29T07:00:06.745Z,95.58
2018-04-29T07:02:35.112Z,94.80
2018-04-29T07:05:03.410Z,95.12
2018-04-29T07:07:31.710Z,94.42
2018-04-29T07:09:59.995Z,94.11
2018-04-29T07:12:28.335Z,94.61
2018-04-29T07:14:56.628Z,94.91
2018-04-29T07:17:25.039Z,93.38
2018-04-29T07:19:53.372Z,93.92
2018-04-29T07:22:21.634Z,93.52
2018-04-29T07:24:50.005Z,93.65
2018-04-29T07:27:18.296Z,93.70
2018-04-29T07:29:46.603Z,93.66
2018-04-29T07:32:14.891Z,92.59
2018-04-29T07:34:44.331Z,93.37
2018-04-29T07:37:12.669Z,92.76
2018-04-29T07:39:41.804Z,91.95
2018-04-29T07:42:10.094Z,91.91
2018-04-29T07:44:38.398Z,91.91
2018-04-29T07:47:06.690Z,91.79
2018-04-29T07:49:35.028Z,91.86
2018-04-29T07:52:03.325Z,91.72
2018-04-29T07:54:31.588Z,90.13
2018-04-29T07:56:59.878Z,89.88
2018-04-29T07:59:28.225Z,90.90
2018-04-29T08:01:56.513Z,90.23
2018-04-29T08:04:24.859Z,89.54
2018-04-29T08:06:53.172Z,89.21
2018-04-29T08:09:21.485Z,89.11
2018-04-29T08:11:50.602Z,89.07
2018-04-29T08:14:18.952Z,88.78
2018-04-29T08:16:47.307Z,89.23
2018-04-29T08:19:15.627Z,89.14
2018-04-29T08:21:44.056Z,88.88
2018-04-29T08:24:12.555Z,87.85
2018-04-29T08:26:41.744Z,87.40
2018-04-29T08:29:10.008Z,87.33
2018-04-29T08:31:38.302Z,84.90
2018-04-29T08:34:07.449Z,88.29
2018-04-29T08:36:35.753Z,88.10
2018-04-29T08:39:05.533Z,87.21
2018-04-29T08:41:33.837Z,85.19
2018-04-29T08:44:02.133Z,82.64
2018-04-29T08:46:30.416Z,82.25
2018-04-29T08:48:59.483Z,81.82
2018-04-29T08:51:27.853Z,81.14
2018-04-29T08:53:56.185Z,78.78
2018-04-29T08:56:24.619Z,79.94
2018-04-29T08:58:53.475Z,78.34
2018-04-29T09:01:21.745Z,78.45
2018-04-29T09:03:50.057Z,79.60
2018-04-29T09:06:18.325Z,79.19
2018-04-29T09:08:46.615Z,77.70
2018-04-29T09:11:15.031Z,78.10
2018-04-29T09:13:43.330Z,77.54
2018-04-29T09:16:11.622Z,76.56
2018-04-29T09:18:39.936Z,76.41
2018-04-29T09:21:09.182Z,75.42
2018-04-29T09:23:37.468Z,74.94
2018-04-29T09:26:05.758Z,74.62
2018-04-29T09:28:34.079Z,72.64
2018-04-29T09:31:03.103Z,68.71
2018-04-29T09:33:31.378Z,71.60
2018-04-29T09:35:59.657Z,70.22
2018-04-29T09:38:27.934Z,68.96
2018-04-29T09:40:56.805Z,66.21
2018-04-29T09:43:25.121Z,64.59
2018-04-29T09:45:53.384Z,63.92
2018-04-29T09:48:21.699Z,63.02
2018-04-29T09:50:50.073Z,58.82
2018-04-29T09:53:19.200Z,58.83
2018-04-29T09:55:47.604Z,58.22
2018-04-29T09:58:15.961Z,62.07
2018-04-29T10:00:50.146Z,58.62
2018-04-29T10:03:20.006Z,58.39
2018-04-29T10:05:48.319Z,57.26
2018-04-29T10:08:17.443Z,55.49
2018-04-29T10:10:45.728Z,55.78
2018-04-29T10:13:14.039Z,55.03
2018-04-29T10:15:42.351Z,54.34
2018-04-29T10:18:11.486Z,54.92
2018-04-29T10:20:39.786Z,53.43
2018-04-29T10:23:08.058Z,53.59
2018-04-29T10:25:37.106Z,53.32
2018-04-29T10:28:05.391Z,52.33
2018-04-29T10:30:33.713Z,51.59
2018-04-29T10:33:01.992Z,50.61
2018-04-29T10:35:30.531Z,50.08
2018-04-29T10:37:59.024Z,49.07
2018-04-29T10:40:27.686Z,46.68
2018-04-29T10:42:56.017Z,45.65
2018-04-29T10:45:24.347Z,44.42
2018-04-29T10:47:52.839Z,43.97
2018-04-29T10:50:21.111Z,41.85
2018-04-29T10:52:49.484Z,44.39
2018-04-29T10:55:17.771Z,45.68
2018-04-29T10:57:46.071Z,45.52
2018-04-29T11:00:19.490Z,43.81
2018-04-29T11:02:48.719Z,41.86
2018-04-29T11:05:17.008Z,40.31
2018-04-29T11:07:45.383Z,39.82
2018-04-29T11:10:13.659Z,39.19
2018-04-29T11:12:41.945Z,39.65
2018-04-29T11:15:10.316Z,42.01
2018-04-29T11:17:38.791Z,39.65
2018-04-29T11:20:07.234Z,38.73
2018-04-29T11:22:36.275Z,39.42
2018-04-29T11:25:04.967Z,38.92
2018-04-29T11:27:33.226Z,37.85
2018-04-29T11:30:01.597Z,38.57
2018-04-29T11:32:29.877Z,39.53
2018-04-29T11:34:58.266Z,37.50
2018-04-29T11:37:26.542Z,38.40
2018-04-29T11:39:54.842Z,37.81
2018-04-29T11:42:23.113Z,36.80
2018-04-29T11:44:51.462Z,36.34
2018-04-29T11:47:19.778Z,37.15
2018-04-29T11:49:48.821Z,38.36
2018-04-29T11:52:17.151Z,36.95
2018-04-29T11:54:45.393Z,35.41
2018-04-29T11:57:13.870Z,37.95
2018-04-29T11:59:42.147Z,36.55
2018-04-29T12:02:10.457Z,37.01
2018-04-29T12:04:39.495Z,38.29
2018-04-29T12:07:08.101Z,36.95
2018-04-29T12:09:36.413Z,35.98
2018-04-29T12:12:05.564Z,36.22
2018-04-29T12:14:33.962Z,37.22
2018-04-29T12:17:02.166Z,35.67
2018-04-29T12:19:31.271Z,37.12
2018-04-29T12:21:59.541Z,37.09
2018-04-29T12:24:28.915Z,35.99
2018-04-29T12:26:57.159Z,36.52
2018-04-29T12:29:25.476Z,35.96
2018-04-29T12:31:54.510Z,35.49
2018-04-29T12:34:22.793Z,36.91
2018-04-29T12:36:51.065Z,35.31
2018-04-29T12:39:19.357Z,36.61
2018-04-29T12:41:47.741Z,37.52
2018-04-29T12:44:16.045Z,38.19
2018-04-29T12:46:44.441Z,38.46
2018-04-29T12:49:13.536Z,39.49
2018-04-29T12:51:41.856Z,40.28
2018-04-29T12:54:10.365Z,40.47
2018-04-29T12:56:38.657Z,42.55
2018-04-29T12:59:07.895Z,42.67
2018-04-29T13:01:36.183Z,43.17
2018-04-29T13:04:04.448Z,43.14
2018-04-29T13:06:32.767Z,44.44
2018-04-29T13:09:01.045Z,44.61
2018-04-29T13:11:29.503Z,45.03
2018-04-29T13:13:57.780Z,44.61
2018-04-29T13:16:26.074Z,46.49
2018-04-29T13:18:54.343Z,46.45
2018-04-29T13:21:22.735Z,46.71
2018-04-29T13:23:51.824Z,47.90
2018-04-29T13:26:20.926Z,47.12
2018-04-29T13:28:49.989Z,46.79
2018-04-29T13:31:18.229Z,45.31
2018-04-29T13:33:46.532Z,44.35
2018-04-29T13:36:15.142Z,46.40
2018-04-29T13:38:44.206Z,46.40
2018-04-29T13:41:12.474Z,45.27
2018-04-29T13:43:40.800Z,44.05
2018-04-29T13:46:09.836Z,43.75
2018-04-29T13:48:38.156Z,46.25
2018-04-29T13:51:06.437Z,43.82
2018-04-29T13:53:35.479Z,44.23
2018-04-29T13:56:03.852Z,45.24
2018-04-29T13:58:32.133Z,43.98
2018-04-29T14:01:00.429Z,43.00
2018-04-29T14:03:28.717Z,43.16
2018-04-29T14:05:56.981Z,43.81
2018-04-29T14:08:25.335Z,43.04
2018-04-29T14:10:53.772Z,42.88
2018-04-29T14:13:22.159Z,43.43
2018-04-29T14:15:50.564Z,43.46
2018-04-29T14:18:19.272Z,42.65
2018-04-29T14:20:47.652Z,42.31
2018-04-29T14:23:15.937Z,42.09
2018-04-29T14:25:44.257Z,42.44
2018-04-29T14:28:12.569Z,41.65
2018-04-29T14:30:40.853Z,42.84
2018-04-29T14:33:09.209Z,43.23
2018-04-29T14:35:37.520Z,43.09
2018-04-29T14:38:05.962Z,43.14
2018-04-29T14:40:34.270Z,43.57
2018-04-29T14:43:02.638Z,42.15
2018-04-29T14:45:30.914Z,42.84
2018-04-29T14:47:59.479Z,42.73
2018-04-29T14:50:27.767Z,43.51
2018-04-29T14:52:56.065Z,42.94
2018-04-29T14:55:24.352Z,43.94
2018-04-29T14:57:53.403Z,43.79
2018-04-29T15:00:21.972Z,44.85
2018-04-29T15:02:50.277Z,42.55
2018-04-29T15:05:18.848Z,42.98
2018-04-29T15:07:47.138Z,42.93
2018-04-29T15:10:15.453Z,42.97
2018-04-29T15:12:43.754Z,42.88
2018-04-29T15:15:12.115Z,43.61
2018-04-29T15:17:40.361Z,43.63
2018-04-29T15:20:09.517Z,43.17
2018-04-29T15:22:37.893Z,41.29
2018-04-29T15:25:06.191Z,40.93
2018-04-29T15:27:34.537Z,41.17
2018-04-29T15:30:02.881Z,41.75
2018-04-29T15:32:31.390Z,42.11
2018-04-29T15:34:59.656Z,42.06
2018-04-29T15:37:27.937Z,42.97
2018-04-29T15:39:56.229Z,42.77
2018-04-29T15:42:24.772Z,42.74
2018-04-29T15:44:53.079Z,42.28
2018-04-29T15:47:21.359Z,42.45
2018-04-29T15:49:49.642Z,42.50
2018-04-29T15:52:17.937Z,43.79
2018-04-29T15:54:46.259Z,43.21
2018-04-29T15:57:19.502Z,42.52
2018-04-29T15:59:47.934Z,42.04
2018-04-29T16:02:16.231Z,41.40
2018-04-29T16:04:44.506Z,41.19
2018-04-29T16:07:12.808Z,41.42
2018-04-29T16:09:41.092Z,40.38
2018-04-29T16:12:09.353Z,39.48
2018-04-29T16:14:37.673Z,40.32
2018-04-29T16:17:06.711Z,40.81
2018-04-29T16:19:35.082Z,41.17
2018-04-29T16:22:03.420Z,41.20
2018-04-29T16:24:31.688Z,40.40
2018-04-29T16:27:00.726Z,40.55
2018-04-29T16:29:29.200Z,40.60
2018-04-29T16:31:57.469Z,41.46
2018-04-29T16:34:25.789Z,40.33
2018-04-29T16:36:54.108Z,40.01
2018-04-29T16:39:22.406Z,39.81
2018-04-29T16:41:50.830Z,38.67
2018-04-29T16:44:19.328Z,39.38
2018-04-29T16:46:47.834Z,39.66
2018-04-29T16:49:16.129Z,40.39
2018-04-29T16:51:44.453Z,39.13
2018-04-29T16:54:12.821Z,41.59
2018-04-29T16:56:41.899Z,40.73
2018-04-29T16:59:10.150Z,39.14
2018-04-29T17:01:38.414Z,41.02
2018-04-29T17:04:06.686Z,41.67
2018-04-29T17:06:34.966Z,38.27
2018-04-29T17:09:03.258Z,40.20
2018-04-29T17:11:31.607Z,39.77
2018-04-29T17:13:59.920Z,37.99
2018-04-29T17:16:28.177Z,39.63
2018-04-29T17:18:56.485Z,40.67
2018-04-29T17:21:24.792Z,41.15
2018-04-29T17:23:53.111Z,40.10
2018-04-29T17:26:21.382Z,39.69
2018-04-29T17:28:49.822Z,40.46
2018-04-29T17:31:18.136Z,39.64
2018-04-29T17:33:46.422Z,39.89
2018-04-29T17:36:14.705Z,41.11
2018-04-29T17:38:43.025Z,40.96
2018-04-29T17:41:11.313Z,39.83
2018-04-29T17:43:39.870Z,40.45
2018-04-29T17:46:08.950Z,39.61
2018-04-29T17:48:38.018Z,40.81
2018-04-29T17:51:06.748Z,39.34
2018-04-29T17:53:36.118Z,39.13
2018-04-29T17:56:04.489Z,39.62
2018-04-29T17:58:32.919Z,40.01
2018-04-29T18:01:01.176Z,39.73
2018-04-29T18:03:30.402Z,39.88
2018-04-29T18:05:59.061Z,39.58
2018-04-29T18:08:27.641Z,39.86
2018-04-29T18:10:56.946Z,39.46
2018-04-29T18:13:25.305Z,39.06
2018-04-29T18:15:53.643Z,39.46
2018-04-29T18:18:22.067Z,39.23
2018-04-29T18:20:50.899Z,39.36
2018-04-29T18:23:20.417Z,39.32
2018-04-29T18:25:49.314Z,38.76
2018-04-29T18:28:17.995Z,39.30
2018-04-29T18:30:52.412Z,39.50
2018-04-29T18:33:20.969Z,39.71
2018-04-29T18:35:49.803Z,39.27
2018-04-29T18:38:18.541Z,39.81
2018-04-29T18:40:47.015Z,39.35
2018-04-29T18:43:15.682Z,39.94
2018-04-29T18:45:44.630Z,39.22
2018-04-29T18:48:13.629Z,38.56
2018-04-29T18:50:42.565Z,38.78
2018-04-29T18:53:16.302Z,38.82
2018-04-29T18:55:46.137Z,38.59
2018-04-29T18:58:16.121Z,38.63
2018-04-29T19:00:50.312Z,39.45
2018-04-29T19:03:19.221Z,38.99
2018-04-29T19:05:48.144Z,38.82
2018-04-29T19:08:17.528Z,39.10
2018-04-29T19:10:46.705Z,39.72
2018-04-29T19:13:15.599Z,39.42
2018-04-29T19:15:45.234Z,38.95
2018-04-29T19:18:13.737Z,38.83
2018-04-29T19:20:43.138Z,38.74
2018-04-29T19:23:11.662Z,39.23
2018-04-29T19:25:40.367Z,39.58
2018-04-29T19:28:12.763Z,37.97
2018-04-29T19:30:42.513Z,37.29
2018-04-29T19:33:10.911Z,37.69
2018-04-29T19:35:39.588Z,37.44
2018-04-29T19:38:07.967Z,37.86
2018-04-29T19:40:36.538Z,36.99
2018-04-29T19:43:05.094Z,36.99
2018-04-29T19:45:33.716Z,36.67
2018-04-29T19:48:02.084Z,36.88
2018-04-29T19:50:31.108Z,37.39
2018-04-29T19:53:00.470Z,38.68
2018-04-29T19:55:30.113Z,37.77
2018-04-29T19:57:59.181Z,38.08
2018-04-29T20:00:27.528Z,38.16
2018-04-29T20:02:56.143Z,37.53
2018-04-29T20:05:25.293Z,36.81
2018-04-29T20:07:54.365Z,38.35
2018-04-29T20:10:24.146Z,37.14
2018-04-29T20:12:53.225Z,36.72
2018-04-29T20:15:21.506Z,36.54
2018-04-29T20:17:50.231Z,37.02
2018-04-29T20:20:18.755Z,36.50
2018-04-29T20:22:47.329Z,37.30
2018-04-29T20:25:16.374Z,38.15
2018-04-29T20:27:44.678Z,37.40
2018-04-29T20:30:12.968Z,37.82
2018-04-29T20:32:49.310Z,36.85
2018-04-29T20:35:17.643Z,37.65
2018-04-29T20:37:46.823Z,37.17
2018-04-29T20:40:16.369Z,37.85
2018-04-29T20:42:46.194Z,37.93
2018-04-29T20:45:14.522Z,37.96
2018-04-29T20:47:42.817Z,37.38
2018-04-29T20:50:11.292Z,38.08
2018-04-29T20:52:39.608Z,38.33
2018-04-29T20:55:07.951Z,39.14
2018-04-29T20:57:36.216Z,39.64
2018-04-29T21:00:04.490Z,40.01
2018-04-29T21:02:32.885Z,40.63
2018-04-29T21:05:01.157Z,40.28
2018-04-29T21:07:29.505Z,41.00
2018-04-29T21:09:58.564Z,40.99
2018-04-29T21:12:26.850Z,41.22
2018-04-29T21:14:55.899Z,41.53
2018-04-29T21:17:24.252Z,41.61
2018-04-29T21:19:52.487Z,41.44
2018-04-29T21:22:20.860Z,41.71
2018-04-29T21:24:49.081Z,41.74
2018-04-29T21:27:17.489Z,42.05
2018-04-29T21:29:45.774Z,42.52
2018-04-29T21:32:14.077Z,42.06
2018-04-29T21:34:43.131Z,41.63
2018-04-29T21:37:11.413Z,42.05
2018-04-29T21:42:14.289Z,42.44
2018-04-29T21:44:42.548Z,42.67
2018-04-29T21:47:10.956Z,42.59
2018-04-29T21:49:39.216Z,43.11
2018-04-29T21:52:07.504Z,42.75
2018-04-29T21:54:35.776Z,42.83
2018-04-29T21:57:04.053Z,43.28
2018-04-29T21:59:32.309Z,43.37
2018-04-29T22:02:00.600Z,43.22
2018-04-29T22:04:28.917Z,43.06
2018-04-29T22:06:58.245Z,43.59
2018-04-29T22:09:26.564Z,42.87
2018-04-29T22:11:54.846Z,43.46
2018-04-29T22:14:23.214Z,43.49
2018-04-29T22:16:51.498Z,43.63
2018-04-29T22:19:19.851Z,43.21
2018-04-29T22:21:48.076Z,43.24
2018-04-29T22:24:17.149Z,43.23
2018-04-29T22:26:45.423Z,42.82
2018-04-29T22:29:13.865Z,42.21
2018-04-29T22:31:42.142Z,42.85
2018-04-29T22:34:10.390Z,42.79
2018-04-29T22:36:38.669Z,42.64
2018-04-29T22:39:06.938Z,42.80
2018-04-29T22:41:35.975Z,42.44
2018-04-29T22:44:04.282Z,42.81
2018-04-29T22:46:32.763Z,42.81
2018-04-29T22:49:01.502Z,42.68
2018-04-29T22:51:29.767Z,42.78
2018-04-29T22:53:58.077Z,40.87
2018-04-29T22:56:26.351Z,40.49
2018-04-29T22:58:54.664Z,41.64
2018-04-29T23:01:23.678Z,45.86
2018-04-29T23:03:51.993Z,49.16
2018-04-29T23:06:20.321Z,52.43
2018-04-29T23:08:48.706Z,54.56
2018-04-29T23:11:17.002Z,56.60
2018-04-29T23:13:45.295Z,58.36
2018-04-29T23:16:13.612Z,59.61
2018-04-29T23:18:42.643Z,60.41
2018-04-29T23:21:10.912Z,60.85
2018-04-29T23:23:39.181Z,61.46
2018-04-29T23:26:07.474Z,62.02
2018-04-29T23:28:35.741Z,62.88
2018-04-29T23:31:04.397Z,62.69
2018-04-29T23:33:33.415Z,62.67
2018-04-29T23:36:01.681Z,62.66
2018-04-29T23:38:29.946Z,61.12
2018-04-29T23:40:58.270Z,60.62
2018-04-29T23:43:26.528Z,60.98
2018-04-29T23:45:54.809Z,59.79
2018-04-29T23:48:23.088Z,59.59
2018-04-29T23:50:51.446Z,58.82
2018-04-29T23:53:19.739Z,58.95
2018-04-29T23:55:48.006Z,58.87
2018-04-29T23:58:16.307Z,58.00
